sensor_id;sensor_type;location;lat;lon;timestamp;P1;durP1;ratioP1;P2;durP2;ratioP2
22648;SDS011;11491;41.942;24.220;2022-10-04T00:00:08;16.77;;;15.23;;
22648;SDS011;11491;41.942;24.220;2022-10-04T00:02:37;7.43;;;5.38;;
22648;SDS011;11491;41.942;24.220;2022-10-04T00:05:11;7.18;;;5.88;;
22648;SDS011;11491;41.942;24.220;2022-10-04T00:07:43;11.43;;;9.60;;
22648;SDS011;11491;41.942;24.220;2022-10-04T00:10:16;15.82;;;14.15;;
22648;SDS011;11491;41.942;24.220;2022-10-04T00:12:46;10.68;;;9.32;;
22648;SDS011;11491;41.942;24.220;2022-10-04T00:15:18;8.02;;;5.30;;
22648;SDS011;11491;41.942;24.220;2022-10-04T00:18:06;6.38;;;4.97;;
22648;SDS011;11491;41.942;24.220;2022-10-04T00:20:56;6.53;;;4.70;;
22648;SDS011;11491;41.942;24.220;2022-10-04T00:23:26;5.35;;;4.03;;
22648;SDS011;11491;41.942;24.220;2022-10-04T00:26:09;4.97;;;3.65;;
22648;SDS011;11491;41.942;24.220;2022-10-04T00:28:43;5.68;;;3.67;;
22648;SDS011;11491;41.942;24.220;2022-10-04T00:33:53;4.88;;;3.95;;
22648;SDS011;11491;41.942;24.220;2022-10-04T00:39:14;5.07;;;4.25;;
22648;SDS011;11491;41.942;24.220;2022-10-04T00:41:49;5.68;;;3.25;;
22648;SDS011;11491;41.942;24.220;2022-10-04T00:44:24;3.55;;;2.90;;
22648;SDS011;11491;41.942;24.220;2022-10-04T00:46:57;5.95;;;3.63;;
22648;SDS011;11491;41.942;24.220;2022-10-04T00:49:29;4.30;;;3.90;;
22648;SDS011;11491;41.942;24.220;2022-10-04T00:52:02;4.95;;;3.47;;
22648;SDS011;11491;41.942;24.220;2022-10-04T00:54:33;5.03;;;3.67;;
22648;SDS011;11491;41.942;24.220;2022-10-04T00:57:06;3.63;;;2.88;;
22648;SDS011;11491;41.942;24.220;2022-10-04T00:59:39;7.90;;;3.30;;
22648;SDS011;11491;41.942;24.220;2022-10-04T01:02:13;6.80;;;3.15;;
22648;SDS011;11491;41.942;24.220;2022-10-04T01:04:45;5.97;;;4.22;;
22648;SDS011;11491;41.942;24.220;2022-10-04T01:09:47;5.72;;;3.20;;
22648;SDS011;11491;41.942;24.220;2022-10-04T01:12:22;3.83;;;3.30;;
22648;SDS011;11491;41.942;24.220;2022-10-04T01:14:59;6.85;;;3.92;;
22648;SDS011;11491;41.942;24.220;2022-10-04T01:17:32;5.90;;;3.20;;
22648;SDS011;11491;41.942;24.220;2022-10-04T01:20:00;6.13;;;3.20;;
22648;SDS011;11491;41.942;24.220;2022-10-04T01:22:34;3.70;;;3.05;;
22648;SDS011;11491;41.942;24.220;2022-10-04T01:25:03;3.15;;;2.85;;
22648;SDS011;11491;41.942;24.220;2022-10-04T01:27:34;3.72;;;2.85;;
22648;SDS011;11491;41.942;24.220;2022-10-04T01:30:06;5.95;;;3.50;;
22648;SDS011;11491;41.942;24.220;2022-10-04T01:32:53;4.63;;;2.95;;
22648;SDS011;11491;41.942;24.220;2022-10-04T01:35:20;3.67;;;2.70;;
22648;SDS011;11491;41.942;24.220;2022-10-04T01:37:47;3.42;;;3.05;;
22648;SDS011;11491;41.942;24.220;2022-10-04T01:40:14;3.38;;;2.67;;
22648;SDS011;11491;41.942;24.220;2022-10-04T01:42:41;3.95;;;2.80;;
22648;SDS011;11491;41.942;24.220;2022-10-04T01:45:15;4.30;;;2.80;;
22648;SDS011;11491;41.942;24.220;2022-10-04T01:47:49;4.68;;;2.80;;
22648;SDS011;11491;41.942;24.220;2022-10-04T01:50:23;3.90;;;2.60;;
22648;SDS011;11491;41.942;24.220;2022-10-04T01:52:55;3.60;;;2.60;;
22648;SDS011;11491;41.942;24.220;2022-10-04T01:55:27;4.28;;;2.80;;
22648;SDS011;11491;41.942;24.220;2022-10-04T01:57:56;3.95;;;2.63;;
22648;SDS011;11491;41.942;24.220;2022-10-04T02:00:27;4.80;;;3.42;;
22648;SDS011;11491;41.942;24.220;2022-10-04T02:02:56;3.95;;;3.40;;
22648;SDS011;11491;41.942;24.220;2022-10-04T02:05:28;5.38;;;3.85;;
22648;SDS011;11491;41.942;24.220;2022-10-04T02:08:00;8.80;;;6.53;;
22648;SDS011;11491;41.942;24.220;2022-10-04T02:10:29;6.43;;;5.00;;
22648;SDS011;11491;41.942;24.220;2022-10-04T02:13:00;8.65;;;3.63;;
22648;SDS011;11491;41.942;24.220;2022-10-04T02:15:30;3.33;;;2.80;;
22648;SDS011;11491;41.942;24.220;2022-10-04T02:17:57;3.22;;;2.70;;
22648;SDS011;11491;41.942;24.220;2022-10-04T02:20:25;3.20;;;2.70;;
22648;SDS011;11491;41.942;24.220;2022-10-04T02:22:55;3.30;;;2.78;;
22648;SDS011;11491;41.942;24.220;2022-10-04T02:25:27;3.38;;;2.53;;
22648;SDS011;11491;41.942;24.220;2022-10-04T02:27:54;3.85;;;3.10;;
22648;SDS011;11491;41.942;24.220;2022-10-04T02:30:22;5.93;;;5.32;;
22648;SDS011;11491;41.942;24.220;2022-10-04T02:32:51;4.72;;;3.67;;
22648;SDS011;11491;41.942;24.220;2022-10-04T02:35:25;5.03;;;3.50;;
22648;SDS011;11491;41.942;24.220;2022-10-04T02:37:58;6.78;;;3.40;;
22648;SDS011;11491;41.942;24.220;2022-10-04T02:40:31;3.33;;;3.03;;
22648;SDS011;11491;41.942;24.220;2022-10-04T02:43:07;5.40;;;3.22;;
22648;SDS011;11491;41.942;24.220;2022-10-04T02:45:40;3.88;;;3.15;;
22648;SDS011;11491;41.942;24.220;2022-10-04T02:48:17;4.93;;;3.70;;
22648;SDS011;11491;41.942;24.220;2022-10-04T02:53:30;9.73;;;7.10;;
22648;SDS011;11491;41.942;24.220;2022-10-04T02:56:03;5.90;;;4.53;;
22648;SDS011;11491;41.942;24.220;2022-10-04T02:58:30;5.07;;;4.25;;
22648;SDS011;11491;41.942;24.220;2022-10-04T03:00:58;6.78;;;4.13;;
22648;SDS011;11491;41.942;24.220;2022-10-04T03:03:26;7.38;;;6.00;;
22648;SDS011;11491;41.942;24.220;2022-10-04T03:05:57;6.80;;;5.40;;
22648;SDS011;11491;41.942;24.220;2022-10-04T03:08:28;6.60;;;5.10;;
22648;SDS011;11491;41.942;24.220;2022-10-04T03:10:58;7.18;;;5.00;;
22648;SDS011;11491;41.942;24.220;2022-10-04T03:13:29;7.00;;;4.68;;
22648;SDS011;11491;41.942;24.220;2022-10-04T03:15:57;5.55;;;4.75;;
22648;SDS011;11491;41.942;24.220;2022-10-04T03:18:24;6.70;;;4.07;;
22648;SDS011;11491;41.942;24.220;2022-10-04T03:20:51;7.97;;;4.03;;
22648;SDS011;11491;41.942;24.220;2022-10-04T03:23:17;5.43;;;4.50;;
22648;SDS011;11491;41.942;24.220;2022-10-04T03:25:49;6.15;;;5.22;;
22648;SDS011;11491;41.942;24.220;2022-10-04T03:28:18;7.47;;;5.30;;
22648;SDS011;11491;41.942;24.220;2022-10-04T03:30:46;5.15;;;4.65;;
22648;SDS011;11491;41.942;24.220;2022-10-04T03:33:19;12.23;;;9.05;;
22648;SDS011;11491;41.942;24.220;2022-10-04T03:35:50;15.73;;;10.27;;
22648;SDS011;11491;41.942;24.220;2022-10-04T03:38:19;10.88;;;8.38;;
22648;SDS011;11491;41.942;24.220;2022-10-04T03:40:51;8.93;;;7.38;;
22648;SDS011;11491;41.942;24.220;2022-10-04T03:43:21;9.40;;;7.68;;
22648;SDS011;11491;41.942;24.220;2022-10-04T03:45:51;11.82;;;9.55;;
22648;SDS011;11491;41.942;24.220;2022-10-04T03:48:28;10.23;;;7.88;;
22648;SDS011;11491;41.942;24.220;2022-10-04T03:50:57;11.82;;;9.15;;
22648;SDS011;11491;41.942;24.220;2022-10-04T03:53:27;9.73;;;7.88;;
22648;SDS011;11491;41.942;24.220;2022-10-04T03:55:58;12.05;;;9.50;;
22648;SDS011;11491;41.942;24.220;2022-10-04T03:58:25;21.15;;;13.60;;
22648;SDS011;11491;41.942;24.220;2022-10-04T04:00:59;26.33;;;14.50;;
22648;SDS011;11491;41.942;24.220;2022-10-04T04:03:37;27.38;;;18.90;;
22648;SDS011;11491;41.942;24.220;2022-10-04T04:06:13;23.23;;;16.25;;
22648;SDS011;11491;41.942;24.220;2022-10-04T04:08:42;25.73;;;18.02;;
22648;SDS011;11491;41.942;24.220;2022-10-04T04:11:15;32.55;;;19.52;;
22648;SDS011;11491;41.942;24.220;2022-10-04T04:13:48;42.65;;;25.02;;
22648;SDS011;11491;41.942;24.220;2022-10-04T04:16:21;41.03;;;28.05;;
22648;SDS011;11491;41.942;24.220;2022-10-04T04:18:50;38.85;;;31.65;;
22648;SDS011;11491;41.942;24.220;2022-10-04T04:21:19;41.65;;;29.35;;
22648;SDS011;11491;41.942;24.220;2022-10-04T04:23:49;40.38;;;25.98;;
22648;SDS011;11491;41.942;24.220;2022-10-04T04:26:24;33.53;;;24.42;;
22648;SDS011;11491;41.942;24.220;2022-10-04T04:29:01;41.00;;;27.58;;
22648;SDS011;11491;41.942;24.220;2022-10-04T04:34:02;40.22;;;27.77;;
22648;SDS011;11491;41.942;24.220;2022-10-04T04:36:31;52.78;;;33.85;;
22648;SDS011;11491;41.942;24.220;2022-10-04T04:39:06;37.83;;;22.00;;
22648;SDS011;11491;41.942;24.220;2022-10-04T04:41:53;49.28;;;25.45;;
22648;SDS011;11491;41.942;24.220;2022-10-04T04:44:20;44.92;;;28.20;;
22648;SDS011;11491;41.942;24.220;2022-10-04T04:46:48;48.25;;;33.33;;
22648;SDS011;11491;41.942;24.220;2022-10-04T04:49:15;55.00;;;35.83;;
22648;SDS011;11491;41.942;24.220;2022-10-04T04:51:46;50.15;;;36.00;;
22648;SDS011;11491;41.942;24.220;2022-10-04T04:54:16;44.03;;;29.33;;
22648;SDS011;11491;41.942;24.220;2022-10-04T04:56:46;41.35;;;27.45;;
22648;SDS011;11491;41.942;24.220;2022-10-04T04:59:17;44.83;;;30.75;;
22648;SDS011;11491;41.942;24.220;2022-10-04T05:01:48;47.35;;;33.38;;
22648;SDS011;11491;41.942;24.220;2022-10-04T05:04:16;49.00;;;34.72;;
22648;SDS011;11491;41.942;24.220;2022-10-04T05:06:46;47.33;;;34.25;;
22648;SDS011;11491;41.942;24.220;2022-10-04T05:09:48;61.15;;;44.05;;
22648;SDS011;11491;41.942;24.220;2022-10-04T05:12:15;51.90;;;37.42;;
22648;SDS011;11491;41.942;24.220;2022-10-04T05:14:47;33.00;;;23.90;;
22648;SDS011;11491;41.942;24.220;2022-10-04T05:17:17;20.88;;;15.10;;
22648;SDS011;11491;41.942;24.220;2022-10-04T05:19:47;24.45;;;17.15;;
22648;SDS011;11491;41.942;24.220;2022-10-04T05:22:15;24.90;;;18.95;;
22648;SDS011;11491;41.942;24.220;2022-10-04T05:27:21;42.00;;;28.98;;
22648;SDS011;11491;41.942;24.220;2022-10-04T05:29:56;45.63;;;30.17;;
22648;SDS011;11491;41.942;24.220;2022-10-04T05:32:32;55.53;;;36.90;;
22648;SDS011;11491;41.942;24.220;2022-10-04T05:35:13;43.22;;;35.45;;
22648;SDS011;11491;41.942;24.220;2022-10-04T05:37:44;47.13;;;34.20;;
22648;SDS011;11491;41.942;24.220;2022-10-04T05:40:25;49.78;;;36.95;;
22648;SDS011;11491;41.942;24.220;2022-10-04T05:43:20;58.55;;;42.95;;
22648;SDS011;11491;41.942;24.220;2022-10-04T05:48:47;144.43;;;95.75;;
22648;SDS011;11491;41.942;24.220;2022-10-04T05:51:19;39.75;;;29.35;;
22648;SDS011;11491;41.942;24.220;2022-10-04T05:53:47;46.40;;;34.65;;
22648;SDS011;11491;41.942;24.220;2022-10-04T05:59:35;47.20;;;34.58;;
22648;SDS011;11491;41.942;24.220;2022-10-04T06:02:17;48.60;;;36.70;;
22648;SDS011;11491;41.942;24.220;2022-10-04T06:05:08;45.00;;;35.38;;
22648;SDS011;11491;41.942;24.220;2022-10-04T06:07:40;35.08;;;26.02;;
22648;SDS011;11491;41.942;24.220;2022-10-04T06:10:19;32.45;;;18.95;;
22648;SDS011;11491;41.942;24.220;2022-10-04T06:13:11;17.95;;;11.40;;
22648;SDS011;11491;41.942;24.220;2022-10-04T06:16:05;27.58;;;18.15;;
22648;SDS011;11491;41.942;24.220;2022-10-04T06:18:55;19.13;;;14.13;;
22648;SDS011;11491;41.942;24.220;2022-10-04T06:21:45;20.38;;;11.98;;
22648;SDS011;11491;41.942;24.220;2022-10-04T06:24:31;10.10;;;7.38;;
22648;SDS011;11491;41.942;24.220;2022-10-04T06:27:07;20.48;;;13.77;;
22648;SDS011;11491;41.942;24.220;2022-10-04T06:29:56;25.70;;;17.27;;
22648;SDS011;11491;41.942;24.220;2022-10-04T06:32:52;26.25;;;17.75;;
22648;SDS011;11491;41.942;24.220;2022-10-04T06:35:40;24.38;;;14.60;;
22648;SDS011;11491;41.942;24.220;2022-10-04T06:41:31;19.85;;;11.30;;
22648;SDS011;11491;41.942;24.220;2022-10-04T06:44:15;27.13;;;14.73;;
22648;SDS011;11491;41.942;24.220;2022-10-04T06:46:58;21.10;;;14.88;;
22648;SDS011;11491;41.942;24.220;2022-10-04T06:49:38;17.55;;;12.63;;
22648;SDS011;11491;41.942;24.220;2022-10-04T06:52:19;14.90;;;12.15;;
22648;SDS011;11491;41.942;24.220;2022-10-04T06:57:54;20.08;;;15.63;;
22648;SDS011;11491;41.942;24.220;2022-10-04T07:00:40;24.45;;;17.85;;
22648;SDS011;11491;41.942;24.220;2022-10-04T07:03:16;6.15;;;5.25;;
22648;SDS011;11491;41.942;24.220;2022-10-04T07:06:03;6.72;;;4.18;;
22648;SDS011;11491;41.942;24.220;2022-10-04T07:08:37;3.30;;;2.90;;
22648;SDS011;11491;41.942;24.220;2022-10-04T07:14:09;3.93;;;2.90;;
22648;SDS011;11491;41.942;24.220;2022-10-04T07:16:44;6.40;;;4.50;;
22648;SDS011;11491;41.942;24.220;2022-10-04T07:19:28;9.00;;;5.47;;
22648;SDS011;11491;41.942;24.220;2022-10-04T07:22:02;3.30;;;2.22;;
22648;SDS011;11491;41.942;24.220;2022-10-04T07:24:50;3.67;;;2.42;;
22648;SDS011;11491;41.942;24.220;2022-10-04T07:27:26;1.50;;;1.30;;
22648;SDS011;11491;41.942;24.220;2022-10-04T07:29:57;5.93;;;4.03;;
22648;SDS011;11491;41.942;24.220;2022-10-04T07:32:26;4.95;;;2.45;;
22648;SDS011;11491;41.942;24.220;2022-10-04T07:34:56;5.05;;;1.88;;
22648;SDS011;11491;41.942;24.220;2022-10-04T07:37:27;7.18;;;5.60;;
22648;SDS011;11491;41.942;24.220;2022-10-04T07:39:58;3.65;;;1.55;;
22648;SDS011;11491;41.942;24.220;2022-10-04T07:42:34;2.92;;;1.52;;
22648;SDS011;11491;41.942;24.220;2022-10-04T07:45:15;5.95;;;3.85;;
22648;SDS011;11491;41.942;24.220;2022-10-04T07:47:47;2.05;;;1.20;;
22648;SDS011;11491;41.942;24.220;2022-10-04T07:50:21;8.40;;;3.75;;
22648;SDS011;11491;41.942;24.220;2022-10-04T07:52:51;4.70;;;2.97;;
22648;SDS011;11491;41.942;24.220;2022-10-04T07:58:10;7.35;;;5.90;;
22648;SDS011;11491;41.942;24.220;2022-10-04T08:00:51;10.90;;;9.77;;
22648;SDS011;11491;41.942;24.220;2022-10-04T08:03:38;3.63;;;2.80;;
22648;SDS011;11491;41.942;24.220;2022-10-04T08:06:29;34.95;;;26.77;;
22648;SDS011;11491;41.942;24.220;2022-10-04T08:09:08;8.20;;;6.90;;
22648;SDS011;11491;41.942;24.220;2022-10-04T08:11:47;4.43;;;3.67;;
22648;SDS011;11491;41.942;24.220;2022-10-04T08:14:36;5.15;;;3.92;;
22648;SDS011;11491;41.942;24.220;2022-10-04T08:17:18;4.55;;;2.20;;
22648;SDS011;11491;41.942;24.220;2022-10-04T08:19:58;2.85;;;2.20;;
22648;SDS011;11491;41.942;24.220;2022-10-04T08:22:41;1.75;;;1.50;;
22648;SDS011;11491;41.942;24.220;2022-10-04T08:25:36;3.92;;;2.83;;
22648;SDS011;11491;41.942;24.220;2022-10-04T08:28:16;5.97;;;2.40;;
22648;SDS011;11491;41.942;24.220;2022-10-04T08:31:15;6.10;;;5.43;;
22648;SDS011;11491;41.942;24.220;2022-10-04T08:34:17;11.50;;;9.57;;
22648;SDS011;11491;41.942;24.220;2022-10-04T08:37:02;10.05;;;8.82;;
22648;SDS011;11491;41.942;24.220;2022-10-04T08:39:46;8.98;;;7.05;;
22648;SDS011;11491;41.942;24.220;2022-10-04T08:45:14;8.95;;;5.80;;
22648;SDS011;11491;41.942;24.220;2022-10-04T08:48:27;10.30;;;8.40;;
22648;SDS011;11491;41.942;24.220;2022-10-04T09:00:47;19.77;;;14.48;;
22648;SDS011;11491;41.942;24.220;2022-10-04T09:03:41;27.40;;;19.27;;
22648;SDS011;11491;41.942;24.220;2022-10-04T09:06:36;18.20;;;12.75;;
22648;SDS011;11491;41.942;24.220;2022-10-04T09:12:20;5.10;;;4.60;;
22648;SDS011;11491;41.942;24.220;2022-10-04T09:15:19;9.02;;;6.90;;
22648;SDS011;11491;41.942;24.220;2022-10-04T09:18:18;14.25;;;12.65;;
22648;SDS011;11491;41.942;24.220;2022-10-04T09:44:52;19.58;;;14.23;;
22648;SDS011;11491;41.942;24.220;2022-10-04T10:37:35;1.63;;;1.48;;
22648;SDS011;11491;41.942;24.220;2022-10-04T13:06:58;15.00;;;7.80;;
22648;SDS011;11491;41.942;24.220;2022-10-04T13:09:45;8.07;;;6.40;;
22648;SDS011;11491;41.942;24.220;2022-10-04T13:13:12;14.65;;;9.70;;
22648;SDS011;11491;41.942;24.220;2022-10-04T13:18:41;31.90;;;16.98;;
22648;SDS011;11491;41.942;24.220;2022-10-04T13:24:29;16.70;;;11.18;;
22648;SDS011;11491;41.942;24.220;2022-10-04T13:27:20;18.92;;;14.02;;
22648;SDS011;11491;41.942;24.220;2022-10-04T13:29:56;10.23;;;5.43;;
22648;SDS011;11491;41.942;24.220;2022-10-04T13:32:32;15.50;;;11.55;;
22648;SDS011;11491;41.942;24.220;2022-10-04T13:35:12;17.35;;;14.43;;
22648;SDS011;11491;41.942;24.220;2022-10-04T13:37:46;23.33;;;16.73;;
22648;SDS011;11491;41.942;24.220;2022-10-04T14:48:16;7.18;;;6.50;;
22648;SDS011;11491;41.942;24.220;2022-10-04T14:51:10;2.05;;;1.60;;
22648;SDS011;11491;41.942;24.220;2022-10-04T14:53:47;1.08;;;0.98;;
22648;SDS011;11491;41.942;24.220;2022-10-04T14:56:31;4.15;;;3.45;;
22648;SDS011;11491;41.942;24.220;2022-10-04T14:59:15;8.45;;;4.30;;
22648;SDS011;11491;41.942;24.220;2022-10-04T15:02:08;13.07;;;11.25;;
22648;SDS011;11491;41.942;24.220;2022-10-04T15:05:01;5.40;;;4.10;;
22648;SDS011;11491;41.942;24.220;2022-10-04T15:07:38;9.30;;;6.63;;
22648;SDS011;11491;41.942;24.220;2022-10-04T15:18:00;22.40;;;13.73;;
22648;SDS011;11491;41.942;24.220;2022-10-04T15:20:53;9.90;;;8.07;;
22648;SDS011;11491;41.942;24.220;2022-10-04T15:26:11;5.57;;;4.47;;
22648;SDS011;11491;41.942;24.220;2022-10-04T15:29:24;8.15;;;6.13;;
22648;SDS011;11491;41.942;24.220;2022-10-04T15:37:34;47.30;;;32.80;;
22648;SDS011;11491;41.942;24.220;2022-10-04T15:40:33;40.17;;;24.70;;
22648;SDS011;11491;41.942;24.220;2022-10-04T15:50:55;27.50;;;16.90;;
22648;SDS011;11491;41.942;24.220;2022-10-04T16:23:30;219.77;;;120.18;;
22648;SDS011;11491;41.942;24.220;2022-10-04T16:26:02;217.88;;;121.20;;
22648;SDS011;11491;41.942;24.220;2022-10-04T16:32:00;33.28;;;19.45;;
22648;SDS011;11491;41.942;24.220;2022-10-04T16:34:49;68.55;;;45.50;;
22648;SDS011;11491;41.942;24.220;2022-10-04T16:50:54;73.30;;;47.30;;
22648;SDS011;11491;41.942;24.220;2022-10-04T16:53:46;45.58;;;32.90;;
22648;SDS011;11491;41.942;24.220;2022-10-04T16:59:42;59.72;;;41.60;;
22648;SDS011;11491;41.942;24.220;2022-10-04T17:05:05;69.28;;;43.95;;
22648;SDS011;11491;41.942;24.220;2022-10-04T17:07:59;78.05;;;51.95;;
22648;SDS011;11491;41.942;24.220;2022-10-04T17:10:39;67.20;;;44.45;;
22648;SDS011;11491;41.942;24.220;2022-10-04T17:13:28;75.75;;;51.80;;
22648;SDS011;11491;41.942;24.220;2022-10-04T17:16:00;70.70;;;49.78;;
22648;SDS011;11491;41.942;24.220;2022-10-04T17:18:36;69.07;;;49.35;;
22648;SDS011;11491;41.942;24.220;2022-10-04T17:21:22;68.82;;;49.22;;
22648;SDS011;11491;41.942;24.220;2022-10-04T17:24:14;52.83;;;37.75;;
22648;SDS011;11491;41.942;24.220;2022-10-04T17:26:54;60.95;;;41.75;;
22648;SDS011;11491;41.942;24.220;2022-10-04T17:29:34;62.47;;;43.85;;
22648;SDS011;11491;41.942;24.220;2022-10-04T17:32:12;102.95;;;69.88;;
22648;SDS011;11491;41.942;24.220;2022-10-04T17:37:22;67.22;;;46.28;;
22648;SDS011;11491;41.942;24.220;2022-10-04T17:40:05;73.30;;;47.63;;
22648;SDS011;11491;41.942;24.220;2022-10-04T17:42:47;87.47;;;56.83;;
22648;SDS011;11491;41.942;24.220;2022-10-04T17:45:34;121.63;;;76.25;;
22648;SDS011;11491;41.942;24.220;2022-10-04T17:48:16;97.10;;;60.95;;
22648;SDS011;11491;41.942;24.220;2022-10-04T17:51:07;87.15;;;57.30;;
22648;SDS011;11491;41.942;24.220;2022-10-04T17:53:59;65.00;;;45.40;;
22648;SDS011;11491;41.942;24.220;2022-10-04T17:56:58;70.68;;;46.28;;
22648;SDS011;11491;41.942;24.220;2022-10-04T17:59:39;71.32;;;45.60;;
22648;SDS011;11491;41.942;24.220;2022-10-04T18:02:09;62.78;;;43.80;;
22648;SDS011;11491;41.942;24.220;2022-10-04T18:04:44;60.85;;;43.05;;
22648;SDS011;11491;41.942;24.220;2022-10-04T18:07:16;58.75;;;39.85;;
22648;SDS011;11491;41.942;24.220;2022-10-04T18:09:46;57.47;;;40.58;;
22648;SDS011;11491;41.942;24.220;2022-10-04T18:12:24;73.72;;;51.15;;
22648;SDS011;11491;41.942;24.220;2022-10-04T18:14:58;99.30;;;64.70;;
22648;SDS011;11491;41.942;24.220;2022-10-04T18:17:33;118.38;;;73.13;;
22648;SDS011;11491;41.942;24.220;2022-10-04T18:20:15;75.60;;;50.40;;
22648;SDS011;11491;41.942;24.220;2022-10-04T18:22:47;79.78;;;51.28;;
22648;SDS011;11491;41.942;24.220;2022-10-04T18:25:17;86.03;;;51.33;;
22648;SDS011;11491;41.942;24.220;2022-10-04T18:27:49;117.90;;;67.55;;
22648;SDS011;11491;41.942;24.220;2022-10-04T18:30:18;57.28;;;38.85;;
22648;SDS011;11491;41.942;24.220;2022-10-04T18:32:47;62.70;;;41.55;;
22648;SDS011;11491;41.942;24.220;2022-10-04T18:35:18;59.83;;;42.03;;
22648;SDS011;11491;41.942;24.220;2022-10-04T18:37:53;69.18;;;43.55;;
22648;SDS011;11491;41.942;24.220;2022-10-04T18:40:22;62.95;;;41.60;;
22648;SDS011;11491;41.942;24.220;2022-10-04T18:42:53;57.17;;;38.55;;
22648;SDS011;11491;41.942;24.220;2022-10-04T18:45:22;52.72;;;35.10;;
22648;SDS011;11491;41.942;24.220;2022-10-04T18:47:51;58.45;;;37.50;;
22648;SDS011;11491;41.942;24.220;2022-10-04T18:50:23;64.15;;;41.35;;
22648;SDS011;11491;41.942;24.220;2022-10-04T18:53:01;58.92;;;41.20;;
22648;SDS011;11491;41.942;24.220;2022-10-04T18:55:47;67.35;;;46.33;;
22648;SDS011;11491;41.942;24.220;2022-10-04T18:58:27;69.57;;;45.83;;
22648;SDS011;11491;41.942;24.220;2022-10-04T19:01:38;74.82;;;53.85;;
22648;SDS011;11491;41.942;24.220;2022-10-04T19:04:30;51.72;;;38.00;;
22648;SDS011;11491;41.942;24.220;2022-10-04T19:07:08;52.33;;;39.47;;
22648;SDS011;11491;41.942;24.220;2022-10-04T19:09:47;54.83;;;37.78;;
22648;SDS011;11491;41.942;24.220;2022-10-04T19:12:39;41.70;;;30.48;;
22648;SDS011;11491;41.942;24.220;2022-10-04T19:15:18;41.25;;;28.90;;
22648;SDS011;11491;41.942;24.220;2022-10-04T19:18:01;30.08;;;23.83;;
22648;SDS011;11491;41.942;24.220;2022-10-04T19:20:40;37.33;;;28.55;;
22648;SDS011;11491;41.942;24.220;2022-10-04T19:23:17;52.88;;;39.60;;
22648;SDS011;11491;41.942;24.220;2022-10-04T19:25:50;42.22;;;30.75;;
22648;SDS011;11491;41.942;24.220;2022-10-04T19:28:28;41.85;;;29.95;;
22648;SDS011;11491;41.942;24.220;2022-10-04T19:31:17;46.70;;;33.83;;
22648;SDS011;11491;41.942;24.220;2022-10-04T19:33:51;36.65;;;27.83;;
22648;SDS011;11491;41.942;24.220;2022-10-04T19:36:35;37.03;;;26.20;;
22648;SDS011;11491;41.942;24.220;2022-10-04T19:39:15;33.25;;;24.33;;
22648;SDS011;11491;41.942;24.220;2022-10-04T19:42:08;51.35;;;31.70;;
22648;SDS011;11491;41.942;24.220;2022-10-04T19:44:43;41.30;;;28.98;;
22648;SDS011;11491;41.942;24.220;2022-10-04T21:12:52;20.50;;;15.75;;
22648;SDS011;11491;41.942;24.220;2022-10-04T21:18:19;21.35;;;16.77;;
22648;SDS011;11491;41.942;24.220;2022-10-04T21:21:10;21.42;;;16.17;;
22648;SDS011;11491;41.942;24.220;2022-10-04T21:23:52;21.70;;;16.87;;
22648;SDS011;11491;41.942;24.220;2022-10-04T21:32:01;26.30;;;18.48;;
22648;SDS011;11491;41.942;24.220;2022-10-04T21:37:18;20.75;;;16.35;;
22648;SDS011;11491;41.942;24.220;2022-10-04T21:39:46;20.00;;;15.07;;
22648;SDS011;11491;41.942;24.220;2022-10-04T21:42:17;23.67;;;17.10;;
22648;SDS011;11491;41.942;24.220;2022-10-04T21:54:00;22.02;;;15.07;;
22648;SDS011;11491;41.942;24.220;2022-10-04T21:56:28;19.45;;;14.20;;
22648;SDS011;11491;41.942;24.220;2022-10-04T21:59:02;20.95;;;15.30;;
22648;SDS011;11491;41.942;24.220;2022-10-04T22:01:29;18.52;;;14.15;;
22648;SDS011;11491;41.942;24.220;2022-10-04T22:03:57;17.23;;;13.40;;
22648;SDS011;11491;41.942;24.220;2022-10-04T22:06:24;19.80;;;13.23;;
22648;SDS011;11491;41.942;24.220;2022-10-04T22:08:55;21.42;;;13.55;;
22648;SDS011;11491;41.942;24.220;2022-10-04T22:11:22;14.88;;;12.07;;
22648;SDS011;11491;41.942;24.220;2022-10-04T22:13:49;19.35;;;12.65;;
22648;SDS011;11491;41.942;24.220;2022-10-04T22:16:16;19.35;;;12.80;;
22648;SDS011;11491;41.942;24.220;2022-10-04T22:18:44;14.60;;;11.45;;
22648;SDS011;11491;41.942;24.220;2022-10-04T22:21:11;17.75;;;12.20;;
22648;SDS011;11491;41.942;24.220;2022-10-04T22:23:40;17.58;;;12.88;;
22648;SDS011;11491;41.942;24.220;2022-10-04T22:26:10;18.05;;;12.27;;
22648;SDS011;11491;41.942;24.220;2022-10-04T22:28:40;20.58;;;12.75;;
22648;SDS011;11491;41.942;24.220;2022-10-04T22:31:10;16.50;;;12.25;;
22648;SDS011;11491;41.942;24.220;2022-10-04T22:33:38;18.90;;;11.90;;
22648;SDS011;11491;41.942;24.220;2022-10-04T22:36:11;18.15;;;12.30;;
22648;SDS011;11491;41.942;24.220;2022-10-04T22:38:40;15.73;;;11.77;;
22648;SDS011;11491;41.942;24.220;2022-10-04T22:41:11;14.82;;;11.32;;
22648;SDS011;11491;41.942;24.220;2022-10-04T22:43:40;16.40;;;11.35;;
22648;SDS011;11491;41.942;24.220;2022-10-04T22:46:10;17.27;;;12.30;;
22648;SDS011;11491;41.942;24.220;2022-10-04T22:48:39;16.30;;;11.32;;
22648;SDS011;11491;41.942;24.220;2022-10-04T22:51:07;15.48;;;11.85;;
22648;SDS011;11491;41.942;24.220;2022-10-04T22:53:36;16.13;;;11.50;;
22648;SDS011;11491;41.942;24.220;2022-10-04T22:56:07;15.73;;;11.60;;
22648;SDS011;11491;41.942;24.220;2022-10-04T22:58:40;16.23;;;10.90;;
22648;SDS011;11491;41.942;24.220;2022-10-04T23:01:09;17.38;;;12.20;;
22648;SDS011;11491;41.942;24.220;2022-10-04T23:03:38;14.88;;;11.65;;
22648;SDS011;11491;41.942;24.220;2022-10-04T23:06:06;16.60;;;11.52;;
22648;SDS011;11491;41.942;24.220;2022-10-04T23:08:38;16.20;;;10.50;;
22648;SDS011;11491;41.942;24.220;2022-10-04T23:11:06;13.60;;;10.32;;
22648;SDS011;11491;41.942;24.220;2022-10-04T23:13:33;15.40;;;10.40;;
22648;SDS011;11491;41.942;24.220;2022-10-04T23:16:08;12.80;;;9.77;;
22648;SDS011;11491;41.942;24.220;2022-10-04T23:18:38;16.23;;;11.13;;
22648;SDS011;11491;41.942;24.220;2022-10-04T23:21:16;14.48;;;11.52;;
22648;SDS011;11491;41.942;24.220;2022-10-04T23:23:46;14.20;;;10.90;;
22648;SDS011;11491;41.942;24.220;2022-10-04T23:26:15;14.95;;;10.85;;
22648;SDS011;11491;41.942;24.220;2022-10-04T23:28:47;14.77;;;10.40;;
22648;SDS011;11491;41.942;24.220;2022-10-04T23:31:18;16.05;;;10.90;;
22648;SDS011;11491;41.942;24.220;2022-10-04T23:33:46;15.33;;;10.60;;
22648;SDS011;11491;41.942;24.220;2022-10-04T23:36:13;14.82;;;10.30;;
22648;SDS011;11491;41.942;24.220;2022-10-04T23:38:41;12.77;;;9.65;;
22648;SDS011;11491;41.942;24.220;2022-10-04T23:41:11;13.55;;;9.57;;
22648;SDS011;11491;41.942;24.220;2022-10-04T23:43:38;15.73;;;10.63;;
22648;SDS011;11491;41.942;24.220;2022-10-04T23:46:09;15.20;;;9.77;;
22648;SDS011;11491;41.942;24.220;2022-10-04T23:48:39;12.20;;;9.40;;
22648;SDS011;11491;41.942;24.220;2022-10-04T23:51:07;10.88;;;8.52;;
22648;SDS011;11491;41.942;24.220;2022-10-04T23:53:37;11.98;;;8.10;;
22648;SDS011;11491;41.942;24.220;2022-10-04T23:56:10;10.48;;;7.45;;
22648;SDS011;11491;41.942;24.220;2022-10-04T23:58:46;10.93;;;6.47;;
